Time;durP1;ratioP1;P1;durP2;ratioP2;P2;SDS_P1;SDS_P2;PMS_P1;PMS_P2;Temp;Humidity;BMP_temperature;BMP_pressure;BME280_temperature;BME280_humidity;BME280_pressure;Samples;Min_cycle;Max_cycle;Signal;HPM_P1;HPM_P2
2021/12/14 00:02:17;;;;;;;17.90;8.80;;;;;;;-1.49;91.82;97648.58;107608;1286;38171;-76
2021/12/14 00:04:46;;;;;;;18.70;10.40;;;;;;;-1.47;91.99;97650.09;107584;1286;39257;-76
2021/12/14 00:07:17;;;;;;;15.20;8.70;;;;;;;-1.44;92.36;97647.16;107543;1287;44786;-76
2021/12/14 00:09:47;;;;;;;21.20;11.90;;;;;;;-1.40;92.03;97649.31;107647;1285;33880;-76
2021/12/14 00:12:32;;;;;;;16.00;8.10;;;;;;;-1.40;92.05;97650.68;107539;1286;39920;-76
2021/12/14 00:15:07;;;;;;;20.50;11.20;;;;;;;-1.43;91.65;97648.73;107533;1286;33317;-76
2021/12/14 00:17:40;;;;;;;19.90;11.10;;;;;;;-1.44;91.95;97648.08;107545;1286;36579;-76
2021/12/14 00:20:16;;;;;;;22.80;12.20;;;;;;;-1.46;91.83;97648.58;107596;1284;31408;-76
2021/12/14 00:25:35;;;;;;;17.10;10.50;;;;;;;-1.46;91.69;97650.90;107538;1286;35253;-76
2021/12/14 00:28:09;;;;;;;20.40;11.40;;;;;;;-1.47;91.78;97649.73;107491;1286;46294;-76
2021/12/14 00:30:40;;;;;;;17.80;10.90;;;;;;;-1.48;91.71;97648.31;107504;1286;35817;-76
2021/12/14 00:33:12;;;;;;;17.10;10.90;;;;;;;-1.47;91.86;97653.29;107505;1285;38127;-76
2021/12/14 00:35:41;;;;;;;21.00;11.80;;;;;;;-1.48;91.92;97652.08;107622;1284;33672;-76
2021/12/14 00:38:14;;;;;;;16.20;10.00;;;;;;;-1.47;92.11;97652.04;107570;1287;34467;-76
2021/12/14 00:40:49;;;;;;;21.60;12.30;;;;;;;-1.43;92.07;97650.54;107504;1286;37248;-76
2021/12/14 00:43:18;;;;;;;19.20;10.50;;;;;;;-1.38;92.51;97648.55;107574;1281;42935;-76
2021/12/14 00:45:48;;;;;;;18.60;10.50;;;;;;;-1.34;92.70;97649.41;107589;1285;36049;-76
2021/12/14 00:48:17;;;;;;;21.30;12.00;;;;;;;-1.29;92.84;97653.00;107618;1286;37992;-76
2021/12/14 00:50:58;;;;;;;20.40;10.50;;;;;;;-1.26;93.06;97651.80;107585;1287;33773;-76
2021/12/14 00:53:29;;;;;;;18.90;10.20;;;;;;;-1.23;92.73;97653.95;107507;1287;38091;-76
2021/12/14 00:56:01;;;;;;;21.80;11.30;;;;;;;-1.21;92.86;97651.08;107529;1286;32681;-76
2021/12/14 00:58:30;;;;;;;17.70;9.40;;;;;;;-1.19;93.18;97647.35;107525;1286;35346;-76
2021/12/14 01:01:05;;;;;;;19.70;10.70;;;;;;;-1.15;93.36;97644.51;107532;1286;36505;-76
2021/12/14 01:03:37;;;;;;;21.90;11.40;;;;;;;-1.12;93.48;97644.92;107470;1286;32981;-76
2021/12/14 01:06:10;;;;;;;22.60;11.30;;;;;;;-1.12;93.19;97644.85;107632;1287;44226;-76
2021/12/14 01:08:43;;;;;;;19.10;10.50;;;;;;;-1.11;93.25;97643.52;107557;1286;39409;-76
2021/12/14 01:11:16;;;;;;;19.00;11.10;;;;;;;-1.11;93.11;97649.88;107486;1284;44008;-76
2021/12/14 01:13:54;;;;;;;17.10;10.20;;;;;;;-1.10;93.16;97655.36;107527;1284;44100;-76
2021/12/14 01:16:35;;;;;;;16.90;10.50;;;;;;;-1.10;92.97;97650.29;107607;1285;31676;-76
2021/12/14 01:19:15;;;;;;;22.40;11.80;;;;;;;-1.09;93.08;97645.17;107562;1286;38505;-76
2021/12/14 01:22:14;;;;;;;15.60;8.60;;;;;;;-1.07;93.21;97647.88;107505;1286;46046;-76
2021/12/14 01:25:03;;;;;;;17.80;9.60;;;;;;;-1.08;93.00;97647.86;107541;1287;31835;-76
2021/12/14 01:27:41;;;;;;;17.80;9.80;;;;;;;-1.07;93.14;97637.80;107474;1287;49229;-76
2021/12/14 01:30:19;;;;;;;21.60;10.20;;;;;;;-1.07;93.27;97638.80;107478;1284;43646;-76
2021/12/14 01:32:50;;;;;;;16.90;9.00;;;;;;;-1.07;93.47;97634.20;107559;1286;33556;-76
2021/12/14 01:35:25;;;;;;;20.70;10.00;;;;;;;-1.08;93.29;97637.62;107692;1286;36317;-76
2021/12/14 01:38:04;;;;;;;18.90;9.20;;;;;;;-1.09;92.98;97636.29;107579;1287;39735;-76
2021/12/14 01:40:54;;;;;;;16.90;9.00;;;;;;;-1.06;93.26;97631.16;107587;1285;32878;-76
2021/12/14 01:43:27;;;;;;;17.60;10.40;;;;;;;-1.07;93.10;97630.42;107479;1286;35323;-76
2021/12/14 01:45:58;;;;;;;17.50;10.10;;;;;;;-1.12;93.09;97627.32;107557;1287;29408;-76
2021/12/14 01:48:30;;;;;;;20.20;11.10;;;;;;;-1.15;92.86;97627.18;107485;1286;37081;-76
2021/12/14 01:51:02;;;;;;;18.90;10.90;;;;;;;-1.21;92.64;97623.08;107459;1286;36801;-76
2021/12/14 01:53:31;;;;;;;17.00;9.50;;;;;;;-1.24;92.59;97629.92;107540;1286;34694;-76
2021/12/14 01:56:03;;;;;;;18.10;10.60;;;;;;;-1.26;92.66;97631.37;107476;1286;37964;-76
2021/12/14 01:58:36;;;;;;;19.30;9.90;;;;;;;-1.28;92.71;97632.96;107538;1287;47045;-76
2021/12/14 02:01:11;;;;;;;18.40;9.70;;;;;;;-1.27;92.86;97637.70;107620;1285;28801;-76
2021/12/14 02:03:55;;;;;;;18.70;9.50;;;;;;;-1.26;92.88;97637.22;107559;1286;31574;-76
2021/12/14 02:06:28;;;;;;;21.10;10.40;;;;;;;-1.23;92.91;97639.34;107571;1285;34917;-76
2021/12/14 02:09:01;;;;;;;16.40;9.40;;;;;;;-1.21;93.14;97637.12;107605;1286;35761;-76
2021/12/14 02:11:33;;;;;;;16.10;9.60;;;;;;;-1.17;93.35;97636.92;107560;1286;38193;-76
2021/12/14 02:14:05;;;;;;;16.70;9.50;;;;;;;-1.17;93.00;97641.05;107511;1286;45338;-76
2021/12/14 02:16:36;;;;;;;16.30;9.60;;;;;;;-1.17;92.90;97645.89;107503;1286;34283;-76
2021/12/14 02:19:10;;;;;;;16.90;9.40;;;;;;;-1.17;92.89;97646.28;107587;1284;44656;-76
2021/12/14 02:21:40;;;;;;;18.70;10.00;;;;;;;-1.18;92.79;97642.08;107513;1285;34963;-76
2021/12/14 02:24:11;;;;;;;17.10;9.10;;;;;;;-1.17;92.67;97647.05;107531;1286;37745;-76
2021/12/14 02:26:43;;;;;;;15.90;9.80;;;;;;;-1.18;92.85;97642.07;107490;1285;42415;-76
2021/12/14 02:29:23;;;;;;;20.10;10.40;;;;;;;-1.18;92.69;97637.10;107557;1287;43296;-76
2021/12/14 02:31:53;;;;;;;19.50;9.80;;;;;;;-1.19;92.62;97639.55;107489;1285;37882;-76
2021/12/14 02:34:22;;;;;;;19.50;11.60;;;;;;;-1.19;92.62;97641.34;107476;1287;50228;-76
2021/12/14 02:36:52;;;;;;;19.90;9.70;;;;;;;-1.20;92.95;97643.70;107581;1285;31888;-76
2021/12/14 02:39:35;;;;;;;20.90;10.40;;;;;;;-1.21;92.82;97642.16;107558;1285;29741;-76
2021/12/14 02:42:05;;;;;;;18.20;9.20;;;;;;;-1.18;92.79;97636.84;107475;1286;35175;-76
2021/12/14 02:44:34;;;;;;;17.70;8.60;;;;;;;-1.15;92.87;97638.14;107564;1286;33425;-76
2021/12/14 02:47:07;;;;;;;17.10;8.70;;;;;;;-1.14;93.15;97636.20;107498;1286;49473;-76
2021/12/14 02:49:38;;;;;;;15.50;7.90;;;;;;;-1.12;93.13;97631.80;107509;1287;32243;-76
2021/12/14 02:52:10;;;;;;;13.70;7.40;;;;;;;-1.11;93.05;97628.22;107517;1286;47297;-76
2021/12/14 02:54:42;;;;;;;15.00;7.40;;;;;;;-1.10;93.01;97627.79;107575;1286;35725;-76
2021/12/14 02:57:15;;;;;;;14.30;7.70;;;;;;;-1.08;93.30;97626.30;107503;1286;38727;-76
2021/12/14 02:59:46;;;;;;;18.70;7.50;;;;;;;-1.06;93.34;97623.11;107447;1285;30011;-76
2021/12/14 03:02:17;;;;;;;11.90;6.80;;;;;;;-1.04;93.31;97624.13;107507;1286;33637;-76
2021/12/14 03:04:49;;;;;;;14.70;7.50;;;;;;;-1.04;93.24;97622.51;107594;1286;46722;-76
2021/12/14 03:07:21;;;;;;;13.60;7.30;;;;;;;-1.04;93.37;97623.26;107489;1287;44719;-76
2021/12/14 03:09:57;;;;;;;13.70;7.30;;;;;;;-1.04;93.19;97625.30;107550;1286;32711;-76
2021/12/14 03:12:33;;;;;;;13.70;6.50;;;;;;;-1.05;93.18;97625.89;107501;1286;34899;-76
2021/12/14 03:15:09;;;;;;;12.60;7.10;;;;;;;-1.07;93.01;97624.14;107493;1287;38634;-76
2021/12/14 03:17:40;;;;;;;10.30;6.50;;;;;;;-1.11;93.05;97621.52;107501;1287;33899;-76
2021/12/14 03:20:14;;;;;;;12.10;6.60;;;;;;;-1.17;93.00;97615.55;107502;1286;38235;-76
2021/12/14 03:22:47;;;;;;;12.10;6.80;;;;;;;-1.24;93.17;97618.59;107519;1286;30929;-76
2021/12/14 03:25:21;;;;;;;13.50;6.70;;;;;;;-1.30;93.00;97624.81;107580;1285;31191;-76
2021/12/14 03:27:52;;;;;;;11.00;6.30;;;;;;;-1.33;93.13;97625.02;107621;1285;37773;-76
2021/12/14 03:30:30;;;;;;;13.10;6.90;;;;;;;-1.36;93.11;97626.52;107461;1287;36457;-76
2021/12/14 03:33:03;;;;;;;16.00;7.80;;;;;;;-1.40;93.20;97621.52;107500;1286;38069;-76
2021/12/14 03:35:39;;;;;;;12.70;8.00;;;;;;;-1.45;93.18;97618.30;107407;1286;42437;-76
2021/12/14 03:38:12;;;;;;;12.00;6.30;;;;;;;-1.52;93.24;97621.09;107540;1287;33239;-76
2021/12/14 03:40:42;;;;;;;11.30;6.70;;;;;;;-1.56;93.43;97624.09;107491;1286;37080;-76
2021/12/14 03:43:13;;;;;;;10.50;6.60;;;;;;;-1.61;93.25;97628.43;107558;1286;34896;-76
2021/12/14 03:45:42;;;;;;;12.10;7.10;;;;;;;-1.65;93.42;97624.33;107519;1286;38089;-76
2021/12/14 03:48:11;;;;;;;11.50;6.70;;;;;;;-1.71;93.58;97626.14;107515;1286;33313;-76
2021/12/14 03:50:42;;;;;;;15.50;6.50;;;;;;;-1.75;93.61;97622.39;107476;1286;41728;-76
2021/12/14 03:53:12;;;;;;;13.00;7.30;;;;;;;-1.80;93.53;97622.23;107466;1287;41810;-76
2021/12/14 03:55:46;;;;;;;14.40;8.20;;;;;;;-1.86;93.58;97623.70;107469;1285;45496;-76
2021/12/14 03:58:18;;;;;;;10.80;5.40;;;;;;;-1.92;93.58;97623.39;107507;1285;31736;-76
2021/12/14 04:00:51;;;;;;;9.20;5.40;;;;;;;-1.95;93.85;97622.55;107575;1285;33189;-76
2021/12/14 04:03:22;;;;;;;14.30;6.70;;;;;;;-1.95;94.02;97627.20;107649;1286;31142;-76
2021/12/14 04:05:52;;;;;;;13.10;5.40;;;;;;;-1.91;94.51;97626.26;107629;1286;30070;-76
2021/12/14 04:08:22;;;;;;;12.00;6.60;;;;;;;-1.88;94.65;97624.06;107484;1286;35142;-75
2021/12/14 04:10:52;;;;;;;10.60;5.90;;;;;;;-1.88;94.76;97626.34;107587;1286;33140;-76
2021/12/14 04:13:25;;;;;;;16.00;6.90;;;;;;;-1.90;94.61;97627.40;107518;1284;41187;-75
2021/12/14 04:15:54;;;;;;;11.30;6.30;;;;;;;-1.93;94.42;97622.91;107632;1285;34157;-76
2021/12/14 04:18:25;;;;;;;10.50;6.00;;;;;;;-1.96;94.61;97620.35;107570;1285;42461;-76
2021/12/14 04:20:55;;;;;;;12.80;6.80;;;;;;;-2.00;94.54;97613.38;107470;1287;45593;-75
2021/12/14 04:23:27;;;;;;;11.00;6.60;;;;;;;-2.02;94.77;97613.79;107519;1284;29570;-75
2021/12/14 04:25:59;;;;;;;12.50;6.30;;;;;;;-2.07;94.66;97610.06;107498;1287;37160;-76
2021/12/14 04:28:32;;;;;;;14.80;7.00;;;;;;;-2.08;94.73;97610.15;107545;1284;26047;-75
2021/12/14 04:31:02;;;;;;;13.20;7.00;;;;;;;-2.11;94.91;97607.14;107457;1287;32658;-76
2021/12/14 04:33:34;;;;;;;12.70;7.20;;;;;;;-2.11;95.09;97606.27;107518;1287;45023;-76
2021/12/14 04:36:10;;;;;;;12.00;6.60;;;;;;;-2.13;94.82;97605.32;107515;1286;34780;-75
2021/12/14 04:38:48;;;;;;;11.60;5.70;;;;;;;-2.16;94.96;97604.30;107520;1284;27360;-76
2021/12/14 04:52:30;;;;;;;15.70;8.30;;;;;;;-2.12;95.53;97600.58;107574;1286;33994;-75
2021/12/14 04:55:03;;;;;;;16.20;8.30;;;;;;;-2.10;95.46;97601.23;107519;1287;32927;-75
2021/12/14 04:57:36;;;;;;;13.90;7.10;;;;;;;-2.13;95.34;97595.94;107467;1286;41791;-75
2021/12/14 05:00:22;;;;;;;15.90;8.90;;;;;;;-2.15;95.43;97594.78;107465;1287;34822;-75
2021/12/14 05:02:52;;;;;;;18.10;8.00;;;;;;;-2.17;95.44;97597.66;107433;1286;37431;-75
2021/12/14 05:05:23;;;;;;;;;;;;;;;-2.13;95.71;97601.48;107613;1287;31162;-75
2021/12/14 05:10:38;;;;;;;14.00;7.10;;;;;;;-2.18;95.43;97612.48;107585;1286;29079;-76
2021/12/14 05:13:07;;;;;;;17.70;8.40;;;;;;;-2.16;95.79;97609.70;107466;1287;33295;-76
2021/12/14 05:15:39;;;;;;;14.10;7.60;;;;;;;-2.13;95.88;97611.52;107475;1287;34398;-76
2021/12/14 05:18:12;;;;;;;13.90;8.10;;;;;;;-2.13;95.96;97613.95;107538;1286;39582;-76
2021/12/14 05:20:43;;;;;;;11.50;6.70;;;;;;;-2.14;96.00;97610.30;107525;1284;30598;-75
2021/12/14 05:23:18;;;;;;;8.10;5.20;;;;;;;-2.11;96.05;97607.88;107458;1287;40397;-75
2021/12/14 05:25:47;;;;;;;11.70;6.80;;;;;;;-2.10;96.15;97612.98;107537;1286;36200;-75
2021/12/14 05:28:19;;;;;;;7.00;4.10;;;;;;;-2.06;96.36;97620.20;107615;1285;37451;-75
2021/12/14 05:30:51;;;;;;;11.90;5.80;;;;;;;-2.04;96.67;97622.52;107534;1287;37155;-76
2021/12/14 05:33:26;;;;;;;11.00;6.00;;;;;;;-2.03;96.64;97621.13;107578;1287;34184;-75
2021/12/14 05:35:57;;;;;;;13.20;6.20;;;;;;;-2.08;96.34;97622.45;107535;1287;35120;-76
2021/12/14 05:38:41;;;;;;;11.20;6.30;;;;;;;-2.10;96.63;97626.17;107563;1287;34317;-76
2021/12/14 05:43:05;;;;;;;11.10;5.70;;;;;;;-2.12;96.67;97627.23;107487;1287;33069;-75
2021/12/14 05:44:00;;;;;;;14.50;6.10;;;;;;;-2.15;96.37;97629.46;107473;1286;34376;-76
2021/12/14 05:46:31;;;;;;;13.60;7.60;;;;;;;-2.18;96.47;97626.54;107556;1285;37961;-76
2021/12/14 05:49:04;;;;;;;16.50;8.20;;;;;;;-2.24;96.18;97626.02;107504;1287;30619;-76
2021/12/14 05:51:34;;;;;;;10.60;6.20;;;;;;;-2.30;96.13;97624.55;107441;1287;39359;-76
2021/12/14 05:54:05;;;;;;;11.10;6.70;;;;;;;-2.35;95.98;97632.30;107514;1287;35460;-75
2021/12/14 05:56:35;;;;;;;11.50;7.20;;;;;;;-2.43;95.84;97635.02;107604;1287;41916;-75
2021/12/14 05:59:05;;;;;;;14.40;8.20;;;;;;;-2.54;95.80;97633.85;107460;1287;36891;-75
2021/12/14 06:01:34;;;;;;;15.00;8.30;;;;;;;-2.64;95.85;97637.35;107481;1286;32803;-76
2021/12/14 06:04:07;;;;;;;11.90;7.50;;;;;;;-2.69;95.85;97635.86;107466;1284;37520;-75
2021/12/14 06:06:40;;;;;;;10.20;5.80;;;;;;;-2.74;95.83;97633.81;107444;1286;50212;-76
2021/12/14 06:09:13;;;;;;;14.30;7.90;;;;;;;-2.77;96.08;97634.52;107470;1285;34744;-76
2021/12/14 06:11:44;;;;;;;17.80;10.00;;;;;;;-2.77;96.25;97632.77;107483;1287;32181;-76
2021/12/14 06:14:19;;;;;;;12.70;7.10;;;;;;;-2.77;96.33;97633.60;107431;1286;37469;-76
2021/12/14 06:16:50;;;;;;;19.90;9.50;;;;;;;-2.75;96.37;97636.16;107622;1286;40350;-76
2021/12/14 06:19:24;;;;;;;16.90;9.00;;;;;;;-2.76;96.52;97639.05;107519;1287;51645;-76
2021/12/14 06:21:57;;;;;;;15.90;8.50;;;;;;;-2.82;96.26;97640.01;107471;1286;35593;-75
2021/12/14 06:24:27;;;;;;;13.50;7.40;;;;;;;-2.89;96.15;97642.09;107601;1286;33227;-75
2021/12/14 06:26:59;;;;;;;13.20;6.80;;;;;;;-2.88;96.47;97646.29;107487;1285;30600;-75
2021/12/14 06:29:34;;;;;;;13.80;7.20;;;;;;;-2.81;96.82;97646.17;107551;1284;34137;-75
2021/12/14 06:32:12;;;;;;;14.00;7.20;;;;;;;-2.74;97.06;97644.52;107436;1287;44455;-75
2021/12/14 06:34:44;;;;;;;14.20;7.10;;;;;;;-2.72;96.95;97640.80;107591;1285;33480;-75
2021/12/14 06:38:09;;;;;;;13.20;7.60;;;;;;;-2.73;96.70;97644.94;107504;1287;33501;-75
2021/12/14 06:40:43;;;;;;;14.30;6.80;;;;;;;-2.77;96.63;97645.09;107499;1284;31950;-75
2021/12/14 06:43:17;;;;;;;11.00;5.90;;;;;;;-2.78;96.60;97649.67;107552;1286;44407;-75
2021/12/14 06:45:55;;;;;;;12.60;7.00;;;;;;;-2.80;96.42;97647.64;107703;1285;38106;-75
2021/12/14 06:48:27;;;;;;;16.10;7.50;;;;;;;-2.82;96.50;97645.02;107472;1287;46641;-75
2021/12/14 06:51:01;;;;;;;13.40;7.20;;;;;;;-2.80;96.49;97641.80;107443;1286;38322;-75
2021/12/14 06:53:31;;;;;;;11.30;6.80;;;;;;;-2.75;96.58;97639.11;107494;1287;43870;-76
2021/12/14 06:56:03;;;;;;;12.60;7.70;;;;;;;-2.72;96.57;97642.56;107486;1285;33919;-75
2021/12/14 06:58:34;;;;;;;15.40;7.90;;;;;;;-2.73;96.46;97643.41;107464;1287;38965;-75
2021/12/14 07:01:08;;;;;;;14.10;8.10;;;;;;;-2.71;96.67;97645.44;107540;1286;42267;-75
2021/12/14 07:03:44;;;;;;;11.90;6.90;;;;;;;-2.73;96.43;97646.17;107499;1286;30071;-76
2021/12/14 07:06:23;;;;;;;15.90;7.70;;;;;;;-2.68;96.72;97647.02;107470;1287;38744;-75
2021/12/14 07:08:54;;;;;;;15.90;7.20;;;;;;;-2.64;96.63;97645.33;107486;1287;33318;-76
2021/12/14 07:11:22;;;;;;;;;;;;;;;-2.60;96.77;97646.77;107474;1287;40204;-75
2021/12/14 07:13:53;;;;;;;14.40;8.00;;;;;;;-2.53;96.85;97650.89;107508;1284;29440;-75
2021/12/14 07:16:27;;;;;;;13.50;6.90;;;;;;;-2.48;96.76;97651.86;107523;1285;40172;-76
2021/12/14 07:18:59;;;;;;;12.60;7.70;;;;;;;-2.47;96.71;97651.70;107528;1286;36020;-76
2021/12/14 07:21:44;;;;;;;14.60;8.00;;;;;;;-2.43;96.83;97648.52;107432;1284;42753;-75
2021/12/14 07:24:35;;;;;;;12.10;7.60;;;;;;;-2.30;96.74;97646.97;107490;1287;38572;-75
2021/12/14 07:27:18;;;;;;;11.60;6.10;;;;;;;-2.13;96.97;97649.06;107458;1287;42217;-75
2021/12/14 07:29:48;;;;;;;18.60;10.00;;;;;;;-1.97;96.79;97646.65;107560;1283;40457;-76
2021/12/14 07:32:37;;;;;;;19.40;10.20;;;;;;;-1.81;96.85;97641.70;107398;1282;160677;-75
2021/12/14 07:35:24;;;;;;;19.00;10.50;;;;;;;-1.41;96.97;97635.05;107478;1285;32114;-75
2021/12/14 07:37:54;;;;;;;21.10;11.70;;;;;;;-1.17;96.51;97634.71;107483;1287;41045;-75
2021/12/14 07:40:32;;;;;;;20.20;12.50;;;;;;;-1.23;96.14;97631.13;107484;1287;30748;-75
2021/12/14 07:43:10;;;;;;;23.80;14.00;;;;;;;-1.34;95.95;97629.23;107609;1284;33256;-75
2021/12/14 07:45:39;;;;;;;21.20;11.70;;;;;;;-1.26;95.88;97633.95;107550;1287;31369;-76
2021/12/14 07:48:08;;;;;;;19.40;11.60;;;;;;;-1.04;95.68;97635.52;107470;1285;38405;-75
2021/12/14 07:50:48;;;;;;;18.20;10.40;;;;;;;-0.90;95.66;97632.37;107465;1286;30987;-75
2021/12/14 07:53:31;;;;;;;16.20;9.90;;;;;;;-0.74;95.29;97629.21;107640;1286;29896;-75
2021/12/14 07:56:02;;;;;;;17.40;8.90;;;;;;;-0.45;95.23;97625.60;107502;1287;35264;-75
2021/12/14 07:58:36;;;;;;;11.40;7.70;;;;;;;-0.27;94.71;97623.84;107520;1287;45532;-75
2021/12/14 08:01:07;;;;;;;13.70;8.10;;;;;;;-0.23;94.46;97621.95;107595;1284;35268;-75
2021/12/14 08:03:37;;;;;;;15.60;7.50;;;;;;;-0.26;93.65;97620.27;107475;1287;32557;-75
2021/12/14 08:06:10;;;;;;;11.30;6.90;;;;;;;-0.19;93.32;97621.30;107513;1286;38278;-75
2021/12/14 08:08:44;;;;;;;12.30;6.10;;;;;;;-0.22;93.32;97621.08;107509;1287;35023;-75
2021/12/14 08:11:46;;;;;;;10.50;6.70;;;;;;;-0.04;93.12;97620.33;107530;1287;27708;-75
2021/12/14 08:14:21;;;;;;;12.70;6.30;;;;;;;0.14;93.27;97623.55;107497;1287;30663;-75
2021/12/14 08:16:54;;;;;;;10.90;6.00;;;;;;;0.27;93.19;97622.26;107516;1286;37370;-76
2021/12/14 08:19:33;;;;;;;11.20;6.80;;;;;;;0.34;92.81;97620.75;107517;1287;32561;-76
2021/12/14 08:22:08;;;;;;;12.20;7.80;;;;;;;0.19;91.72;97624.04;107603;1287;43966;-76
2021/12/14 08:24:38;;;;;;;13.50;7.30;;;;;;;0.05;91.62;97621.95;107459;1284;38206;-76
2021/12/14 08:27:08;;;;;;;11.80;5.80;;;;;;;-0.04;91.22;97622.14;107500;1286;29562;-76
2021/12/14 08:29:38;;;;;;;13.30;6.80;;;;;;;0.07;91.38;97621.96;107485;1287;30433;-76
2021/12/14 08:32:12;;;;;;;9.80;6.30;;;;;;;0.19;91.66;97621.15;107409;1287;45400;-76
2021/12/14 08:34:46;;;;;;;11.40;7.00;;;;;;;0.20;90.83;97625.88;107536;1287;36268;-76
2021/12/14 08:37:18;;;;;;;11.20;6.30;;;;;;;0.10;90.85;97623.83;107617;1285;27503;-76
2021/12/14 08:39:51;;;;;;;10.80;6.50;;;;;;;0.15;90.73;97621.39;107567;1287;31276;-75
2021/12/14 08:42:28;;;;;;;10.70;6.80;;;;;;;0.20;90.77;97625.02;107547;1287;33726;-75
2021/12/14 08:45:00;;;;;;;9.10;5.40;;;;;;;0.23;90.44;97620.34;107469;1287;40410;-75
2021/12/14 08:47:33;;;;;;;9.60;5.70;;;;;;;0.38;90.41;97617.98;107464;1287;38988;-76
2021/12/14 08:50:06;;;;;;;10.20;5.80;;;;;;;0.50;90.13;97615.90;107490;1287;32455;-75
2021/12/14 08:52:35;;;;;;;9.40;6.30;;;;;;;0.52;89.88;97617.52;107477;1285;44399;-75
2021/12/14 08:55:09;;;;;;;10.50;6.10;;;;;;;0.56;89.82;97618.44;107488;1287;38319;-75
2021/12/14 08:57:38;;;;;;;11.70;5.70;;;;;;;0.64;89.54;97620.65;107640;1286;30845;-75
2021/12/14 09:00:13;;;;;;;11.60;6.80;;;;;;;0.67;89.40;97620.27;107513;1287;36523;-74
2021/12/14 09:02:42;;;;;;;12.90;7.80;;;;;;;0.76;89.31;97613.52;107568;1286;41131;-75
2021/12/14 09:05:14;;;;;;;14.20;7.00;;;;;;;0.86;89.34;97607.12;107474;1287;41916;-75
2021/12/14 09:07:44;;;;;;;11.80;6.20;;;;;;;0.96;89.11;97603.59;107525;1287;27846;-75
2021/12/14 09:10:34;;;;;;;11.90;6.40;;;;;;;1.08;89.15;97604.86;107552;1286;39779;-75
2021/12/14 09:13:07;;;;;;;10.20;5.90;;;;;;;1.18;88.75;97601.27;107591;1287;39387;-75
2021/12/14 09:15:41;;;;;;;10.50;6.10;;;;;;;1.24;88.21;97597.77;107514;1287;38070;-75
2021/12/14 09:18:11;;;;;;;12.70;6.80;;;;;;;1.26;87.61;97594.70;107494;1287;34984;-75
2021/12/14 09:20:45;;;;;;;10.70;5.90;;;;;;;1.32;87.52;97595.94;107507;1287;37502;-75
2021/12/14 09:23:16;;;;;;;8.80;5.70;;;;;;;1.33;87.13;97596.63;107518;1287;32357;-75
2021/12/14 09:25:47;;;;;;;11.40;7.20;;;;;;;1.32;86.69;97596.19;107603;1286;37690;-75
2021/12/14 09:28:18;;;;;;;13.20;7.50;;;;;;;1.18;86.11;97594.19;107586;1287;31417;-75
2021/12/14 09:30:47;;;;;;;;;;;;;;;1.08;86.12;97593.70;107563;1287;32051;-75
2021/12/14 09:33:19;;;;;;;9.00;4.70;;;;;;;1.16;86.38;97590.32;107543;1287;37310;-74
2021/12/14 09:35:48;;;;;;;12.60;6.60;;;;;;;1.29;86.46;97587.17;107615;1287;34629;-75
2021/12/14 09:38:19;;;;;;;13.50;6.50;;;;;;;1.34;86.02;97586.18;107552;1287;36974;-74
2021/12/14 09:40:51;;;;;;;12.50;6.80;;;;;;;1.38;85.60;97581.81;107611;1287;36499;-74
2021/12/14 09:43:22;;;;;;;9.90;7.00;;;;;;;1.35;85.34;97586.77;107630;1286;36602;-75
2021/12/14 09:45:54;;;;;;;9.50;6.60;;;;;;;1.38;85.29;97585.62;107678;1286;31496;-74
2021/12/14 09:48:27;;;;;;;13.60;7.30;;;;;;;1.35;85.03;97582.44;107508;1287;37311;-74
2021/12/14 09:50:57;;;;;;;14.30;9.00;;;;;;;1.18;84.55;97576.55;107632;1287;30266;-75
2021/12/14 09:53:28;;;;;;;11.70;7.20;;;;;;;1.05;84.48;97568.98;107517;1286;31582;-74
2021/12/14 09:55:58;;;;;;;13.00;7.10;;;;;;;1.04;84.20;97564.39;107573;1286;34851;-75
2021/12/14 09:58:30;;;;;;;13.20;8.80;;;;;;;1.01;84.22;97563.91;107507;1287;32790;-75
2021/12/14 10:01:05;;;;;;;13.00;7.90;;;;;;;1.06;84.59;97561.32;107502;1286;35376;-75
2021/12/14 10:03:34;;;;;;;15.10;8.10;;;;;;;1.26;84.88;97552.46;107521;1286;28165;-74
2021/12/14 10:06:06;;;;;;;14.80;9.20;;;;;;;1.39;85.05;97550.63;107503;1287;36573;-75
2021/12/14 10:08:42;;;;;;;17.20;9.20;;;;;;;1.48;84.78;97541.68;107548;1286;33134;-75
2021/12/14 10:11:24;;;;;;;14.30;8.70;;;;;;;1.61;84.67;97538.66;107617;1287;38597;-75
2021/12/14 10:13:56;;;;;;;15.20;8.30;;;;;;;1.83;85.00;97536.77;107551;1287;29892;-74
2021/12/14 10:16:25;;;;;;;16.10;9.70;;;;;;;1.96;84.41;97541.79;107462;1287;37023;-75
2021/12/14 10:18:57;;;;;;;16.00;8.90;;;;;;;1.87;83.56;97541.88;107505;1287;30124;-75
2021/12/14 10:21:29;;;;;;;15.80;9.80;;;;;;;1.84;83.52;97535.84;107505;1287;48257;-75
2021/12/14 10:24:01;;;;;;;17.00;9.80;;;;;;;1.94;83.57;97532.27;107510;1285;38293;-75
2021/12/14 10:26:32;;;;;;;15.80;9.60;;;;;;;1.89;83.11;97529.77;107577;1287;27554;-75
2021/12/14 10:29:02;;;;;;;20.90;10.60;;;;;;;1.85;82.98;97532.39;107527;1286;33149;-75
2021/12/14 10:31:37;;;;;;;16.30;10.20;;;;;;;1.80;82.78;97530.27;107487;1286;38569;-75
2021/12/14 10:34:10;;;;;;;18.30;11.90;;;;;;;1.78;82.59;97527.02;107496;1286;29777;-75
2021/12/14 10:36:43;;;;;;;20.80;12.40;;;;;;;1.78;82.64;97530.44;107490;1287;33564;-74
2021/12/14 10:39:38;;;;;;;19.90;11.20;;;;;;;1.85;82.64;97532.48;107613;1287;35955;-74
2021/12/14 10:45:07;;;;;;;19.10;11.90;;;;;;;1.92;82.12;97536.13;107591;1285;30112;-75
2021/12/14 10:47:36;;;;;;;21.10;12.40;;;;;;;1.93;81.96;97534.84;107555;1286;29343;-75
2021/12/14 10:50:12;;;;;;;17.70;11.60;;;;;;;1.88;81.71;97535.73;107541;1287;32841;-74
2021/12/14 10:52:43;;;;;;;19.70;12.00;;;;;;;1.87;81.98;97534.80;107455;1287;47144;-74
2021/12/14 10:55:20;;;;;;;23.10;12.80;;;;;;;1.95;82.41;97535.92;107496;1287;33500;-74
2021/12/14 10:57:49;;;;;;;22.20;13.50;;;;;;;1.99;82.28;97537.15;107616;1287;30108;-74
2021/12/14 11:00:30;;;;;;;21.50;12.70;;;;;;;2.00;82.09;97538.11;107594;1285;31579;-74
2021/12/14 11:03:02;;;;;;;21.90;13.10;;;;;;;1.98;81.95;97540.89;107495;1287;28279;-74
2021/12/14 11:05:33;;;;;;;22.40;13.30;;;;;;;2.00;82.17;97540.04;107490;1287;34371;-74
2021/12/14 11:08:03;;;;;;;21.80;13.10;;;;;;;1.97;81.58;97540.52;107474;1286;37082;-74
2021/12/14 11:10:35;;;;;;;22.20;13.50;;;;;;;1.84;81.18;97536.05;107562;1287;38315;-74
2021/12/14 11:13:07;;;;;;;18.40;11.40;;;;;;;1.79;81.64;97532.77;107490;1287;38761;-74
2021/12/14 11:15:39;;;;;;;18.30;11.30;;;;;;;1.75;81.47;97539.13;107491;1287;34987;-74
2021/12/14 11:18:13;;;;;;;17.50;10.20;;;;;;;1.72;81.41;97540.37;107505;1287;32480;-74
2021/12/14 11:20:47;;;;;;;15.20;9.80;;;;;;;1.68;81.63;97537.89;107649;1286;30727;-74
2021/12/14 11:23:20;;;;;;;18.30;9.80;;;;;;;1.76;82.03;97536.16;107491;1284;32301;-74
2021/12/14 11:25:57;;;;;;;18.20;11.00;;;;;;;1.98;82.69;97533.80;107668;1287;34851;-74
2021/12/14 11:28:33;;;;;;;18.30;10.70;;;;;;;2.21;82.50;97529.05;107512;1285;38458;-74
2021/12/14 11:31:06;;;;;;;18.10;10.80;;;;;;;2.32;82.11;97526.98;107517;1287;37429;-74
2021/12/14 11:33:39;;;;;;;18.60;11.90;;;;;;;2.42;81.99;97522.80;107477;1286;32167;-74
2021/12/14 11:36:12;;;;;;;20.80;12.90;;;;;;;2.55;82.02;97518.54;107560;1287;34385;-74
2021/12/14 11:38:43;;;;;;;18.50;11.00;;;;;;;2.61;81.27;97516.91;107631;1286;32717;-74
2021/12/14 11:41:37;;;;;;;18.20;11.30;;;;;;;2.52;80.58;97519.27;107533;1287;34161;-74
2021/12/14 11:44:12;;;;;;;20.40;12.50;;;;;;;2.41;80.40;97516.48;107548;1287;37937;-74
2021/12/14 11:47:11;;;;;;;21.30;12.40;;;;;;;2.39;80.67;97512.20;107493;1286;35300;-74
2021/12/14 11:49:51;;;;;;;25.20;14.30;;;;;;;2.37;80.62;97511.15;107548;1287;32216;-74
2021/12/14 11:52:50;;;;;;;;;;;;;;;2.37;80.57;97509.41;107715;1286;28963;-74
2021/12/14 11:55:39;;;;;;;19.60;11.70;;;;;;;2.44;80.85;97506.16;107638;1287;31828;-74
2021/12/14 11:58:16;;;;;;;19.50;11.20;;;;;;;2.53;80.93;97505.58;107515;1286;29522;-73
2021/12/14 12:00:49;;;;;;;21.60;11.40;;;;;;;2.58;80.82;97506.65;107568;1286;28793;-74
2021/12/14 12:03:46;;;;;;;20.70;11.20;;;;;;;2.58;80.58;97501.98;107567;1287;36197;-74
2021/12/14 12:06:43;;;;;;;19.80;11.50;;;;;;;2.60;80.47;97508.10;107601;1282;35054;-74
2021/12/14 12:09:32;;;;;;;20.80;10.90;;;;;;;2.74;80.91;97507.66;107505;1287;34745;-74
2021/12/14 12:12:11;;;;;;;19.20;11.70;;;;;;;3.00;81.12;97499.79;107529;1286;30039;-74